Time;durP1;ratioP1;P1;durP2;ratioP2;P2;SDS_P1;SDS_P2;PMS_P1;PMS_P2;Temp;Humidity;BMP_temperature;BMP_pressure;BME280_temperature;BME280_humidity;BME280_pressure;Samples;Min_cycle;Max_cycle;Signal;HPM_P1;HPM_P2
2023/03/26 00:02:05;;;;;;;5.53;1.30;;;9.30;99.90;;;;;;4935354;29;20195;-79
2023/03/26 00:04:32;;;;;;;11.43;2.10;;;9.30;99.90;;;;;;4935347;29;20293;-79
2023/03/26 00:06:58;;;;;;;6.00;0.87;;;9.40;99.90;;;;;;4935440;29;20184;-79
2023/03/26 00:09:23;;;;;;;5.83;1.13;;;9.30;99.90;;;;;;4934984;29;20450;-79
2023/03/26 00:11:50;;;;;;;5.07;0.90;;;9.40;99.90;;;;;;4935346;29;20176;-79
2023/03/26 00:14:16;;;;;;;6.43;1.17;;;9.30;99.90;;;;;;4935208;29;20212;-79
2023/03/26 00:16:42;;;;;;;7.03;1.00;;;9.30;99.90;;;;;;4935104;29;20418;-79
2023/03/26 00:19:09;;;;;;;8.30;1.43;;;9.30;99.90;;;;;;4938725;29;20520;-79
2023/03/26 00:21:34;;;;;;;4.20;1.00;;;9.40;99.90;;;;;;4938722;29;20927;-79
2023/03/26 00:24:04;;;;;;;9.23;1.83;;;9.40;99.90;;;;;;4938320;29;20417;-79
2023/03/26 00:26:31;;;;;;;7.17;1.10;;;9.30;99.90;;;;;;4938553;29;20544;-79
2023/03/26 00:28:57;;;;;;;6.13;1.00;;;9.30;99.90;;;;;;4938523;29;20485;-79
2023/03/26 00:31:23;;;;;;;5.30;1.63;;;9.30;99.90;;;;;;4938553;29;20499;-79
2023/03/26 00:33:53;;;;;;;5.47;1.57;;;9.20;99.90;;;;;;4938491;29;20517;-79
2023/03/26 00:36:19;;;;;;;5.43;1.47;;;9.20;99.90;;;;;;4938551;29;20176;-79
2023/03/26 00:38:45;;;;;;;8.97;1.60;;;9.30;99.90;;;;;;4937857;29;20472;-79
2023/03/26 00:41:23;;;;;;;8.43;0.87;;;9.30;99.90;;;;;;4938372;29;20415;-79
2023/03/26 00:43:52;;;;;;;5.80;1.37;;;9.40;99.90;;;;;;4938464;29;20481;-79
2023/03/26 00:46:18;;;;;;;6.30;0.93;;;9.40;99.90;;;;;;4938244;29;20414;-79
2023/03/26 00:48:44;;;;;;;10.20;2.03;;;9.40;99.90;;;;;;4938179;29;20520;-79
2023/03/26 00:51:11;;;;;;;6.77;1.07;;;9.30;99.90;;;;;;4938202;29;20215;-80
2023/03/26 00:53:37;;;;;;;4.20;0.70;;;9.30;99.90;;;;;;4937806;29;20919;-80
2023/03/26 00:56:05;;;;;;;4.97;1.20;;;9.40;99.90;;;;;;4938098;29;20414;-79
2023/03/26 00:58:30;;;;;;;14.63;2.10;;;9.30;99.90;;;;;;4937971;29;20424;-80
2023/03/26 01:01:01;;;;;;;8.60;1.67;;;9.30;99.90;;;;;;4938072;29;20419;-80
2023/03/26 01:03:29;;;;;;;4.13;0.87;;;9.30;99.90;;;;;;4937919;29;20186;-80
2023/03/26 01:06:09;;;;;;;3.03;0.60;;;9.30;99.90;;;;;;4936595;29;20946;-80
2023/03/26 01:08:43;;;;;;;5.73;1.33;;;9.30;99.90;;;;;;4937499;29;20425;-80
2023/03/26 01:11:23;;;;;;;5.53;0.97;;;9.30;99.90;;;;;;4936527;29;20434;-79
2023/03/26 01:13:58;;;;;;;4.40;1.00;;;9.20;99.90;;;;;;4937710;29;20480;-80
2023/03/26 01:16:38;;;;;;;4.60;0.50;;;9.20;99.90;;;;;;4937720;29;20428;-79
2023/03/26 01:19:24;;;;;;;6.83;0.83;;;9.20;99.90;;;;;;4937623;29;20774;-78
2023/03/26 01:21:50;;;;;;;7.47;1.40;;;9.20;99.90;;;;;;4937606;29;20432;-81
2023/03/26 01:24:15;;;;;;;10.23;1.17;;;9.10;99.90;;;;;;4937274;29;20409;-78
2023/03/26 01:26:46;;;;;;;7.10;0.70;;;9.10;99.90;;;;;;4937488;29;20600;-79
2023/03/26 01:29:21;;;;;;;3.17;0.43;;;9.00;99.90;;;;;;4936681;29;20194;-78
2023/03/26 01:32:21;;;;;;;2.87;0.73;;;8.90;99.90;;;;;;4937507;29;20454;-78
2023/03/26 01:35:11;;;;;;;2.53;0.80;;;8.90;99.90;;;;;;4937306;29;20610;-78
2023/03/26 01:38:01;;;;;;;3.63;1.13;;;8.90;99.90;;;;;;4937022;29;20435;-78
2023/03/26 01:40:26;;;;;;;5.70;0.33;;;9.00;99.90;;;;;;4937139;29;20461;-78
2023/03/26 01:43:01;;;;;;;3.80;1.40;;;8.90;99.90;;;;;;4937207;29;20421;-78
2023/03/26 01:45:30;;;;;;;2.67;0.60;;;8.80;99.90;;;;;;4937135;29;20178;-78
2023/03/26 01:47:56;;;;;;;2.40;0.63;;;8.80;99.90;;;;;;4937081;29;20949;-78
2023/03/26 01:50:22;;;;;;;4.83;0.60;;;8.80;99.90;;;;;;4951771;29;20423;-78
2023/03/26 01:52:48;;;;;;;2.40;0.30;;;8.80;99.90;;;;;;4936611;29;20493;-78
2023/03/26 01:55:13;;;;;;;5.40;1.17;;;8.70;99.90;;;;;;4936998;29;20228;-79
2023/03/26 01:58:00;;;;;;;2.73;0.60;;;8.70;99.90;;;;;;4936948;29;20203;-79
2023/03/26 02:00:31;;;;;;;7.97;0.87;;;8.70;99.90;;;;;;4936923;29;20209;-79
2023/03/26 02:03:16;;;;;;;2.00;0.57;;;8.70;99.90;;;;;;4936834;29;20500;-78
2023/03/26 02:06:22;;;;;;;3.77;0.50;;;8.60;99.90;;;;;;4916489;29;20837;-79
2023/03/26 02:09:01;;;;;;;5.40;1.30;;;8.70;99.90;;;;;;4936373;29;20967;-79
2023/03/26 02:11:27;;;;;;;2.90;0.57;;;8.60;99.90;;;;;;4936744;29;20432;-78
2023/03/26 02:13:52;;;;;;;6.33;1.30;;;8.50;99.90;;;;;;4936567;29;20475;-79
2023/03/26 02:16:19;;;;;;;5.83;1.00;;;8.40;99.90;;;;;;4936652;29;20185;-79
2023/03/26 02:18:50;;;;;;;5.07;1.60;;;8.50;99.90;;;;;;4936455;29;20764;-79
2023/03/26 02:21:21;;;;;;;6.87;0.73;;;8.50;99.90;;;;;;4936607;29;20512;-78
2023/03/26 02:24:01;;;;;;;2.50;0.97;;;8.50;99.90;;;;;;4936233;29;20440;-79
2023/03/26 02:26:29;;;;;;;3.73;0.60;;;8.40;99.90;;;;;;4936542;29;20417;-78
2023/03/26 02:28:55;;;;;;;6.53;1.00;;;8.30;99.90;;;;;;4936432;29;20475;-79
2023/03/26 02:31:24;;;;;;;9.03;1.80;;;8.30;99.90;;;;;;4936410;29;20448;-79
2023/03/26 02:33:51;;;;;;;6.03;0.70;;;8.40;99.90;;;;;;4936112;29;20483;-79
2023/03/26 02:36:18;;;;;;;11.10;1.40;;;8.50;99.90;;;;;;4936308;29;20455;-80
2023/03/26 02:38:43;;;;;;;2.63;0.30;;;8.50;99.90;;;;;;4935811;29;20480;-79
2023/03/26 02:41:09;;;;;;;5.90;0.63;;;8.60;99.90;;;;;;4936067;29;20425;-78
2023/03/26 02:43:34;;;;;;;11.60;1.37;;;8.60;99.90;;;;;;4936271;29;20244;-79
2023/03/26 02:46:00;;;;;;;1.50;0.30;;;8.70;99.90;;;;;;4936164;29;20173;-79
2023/03/26 02:48:25;;;;;;;5.47;1.07;;;8.70;99.90;;;;;;4936092;29;20180;-79
2023/03/26 02:50:54;;;;;;;4.60;0.37;;;8.70;99.90;;;;;;4936099;29;20176;-78
2023/03/26 02:53:22;;;;;;;4.53;0.60;;;8.60;99.90;;;;;;4935629;29;20215;-78
2023/03/26 02:55:48;;;;;;;3.47;0.63;;;8.50;99.90;;;;;;4936018;29;20431;-78
2023/03/26 02:58:16;;;;;;;7.70;0.50;;;8.50;99.90;;;;;;4936063;29;20423;-78
2023/03/26 03:00:45;;;;;;;1.40;0.30;;;8.40;99.90;;;;;;4936018;29;20265;-79
2023/03/26 03:03:11;;;;;;;4.20;0.57;;;8.40;99.90;;;;;;4935938;29;20413;-79
2023/03/26 03:05:37;;;;;;;2.37;0.40;;;8.40;99.90;;;;;;4935921;29;20432;-79
2023/03/26 03:08:04;;;;;;;4.37;0.90;;;8.50;99.90;;;;;;4934396;29;20417;-79
2023/03/26 03:10:31;;;;;;;6.80;0.50;;;8.60;99.90;;;;;;4935868;29;20439;-79
2023/03/26 03:12:58;;;;;;;1.80;0.73;;;8.60;99.90;;;;;;4935800;29;20530;-79
2023/03/26 03:15:23;;;;;;;7.07;0.60;;;8.50;99.90;;;;;;4935904;29;20428;-79
2023/03/26 03:17:49;;;;;;;5.63;0.60;;;8.60;99.90;;;;;;4935800;29;20436;-79
2023/03/26 03:20:15;;;;;;;4.73;0.60;;;8.60;99.90;;;;;;4935802;29;20182;-79
2023/03/26 03:22:41;;;;;;;2.30;0.87;;;8.50;99.90;;;;;;4935480;29;20616;-79
2023/03/26 03:25:13;;;;;;;2.77;0.33;;;8.50;99.90;;;;;;4935784;29;20513;-79
2023/03/26 03:27:40;;;;;;;3.37;0.40;;;8.40;99.90;;;;;;4935631;29;20184;-79
2023/03/26 03:30:08;;;;;;;4.27;0.73;;;8.30;99.90;;;;;;4935750;29;20455;-80
2023/03/26 03:32:33;;;;;;;2.67;0.20;;;8.30;99.90;;;;;;4935455;29;20547;-80
2023/03/26 03:34:59;;;;;;;3.90;0.80;;;8.30;98.90;;;;;;4934499;29;20471;-79
2023/03/26 03:37:25;;;;;;;10.63;1.27;;;8.20;98.80;;;;;;4935328;29;20722;-79
2023/03/26 03:39:51;;;;;;;3.20;0.47;;;8.20;99.90;;;;;;4935373;29;20272;-79
2023/03/26 03:42:16;;;;;;;4.67;1.17;;;8.00;99.90;;;;;;4935602;29;20425;-79
2023/03/26 03:44:42;;;;;;;5.60;0.73;;;8.00;99.90;;;;;;4935557;29;20201;-79
2023/03/26 03:47:09;;;;;;;6.83;0.97;;;8.00;99.90;;;;;;4935551;29;20180;-79
2023/03/26 03:49:35;;;;;;;3.93;0.67;;;8.00;99.90;;;;;;4935560;29;20259;-79
2023/03/26 03:52:01;;;;;;;8.17;1.23;;;8.00;99.90;;;;;;4935592;29;20510;-79
2023/03/26 03:54:27;;;;;;;4.40;1.00;;;8.10;99.90;;;;;;4939090;29;20221;-80
2023/03/26 03:56:52;;;;;;;5.70;0.83;;;8.20;99.90;;;;;;4939146;29;20419;-80
2023/03/26 03:59:18;;;;;;;3.40;0.30;;;8.30;99.90;;;;;;4938871;29;20239;-80
2023/03/26 04:01:45;;;;;;;8.73;1.13;;;8.30;99.90;;;;;;4938921;29;20174;-80
2023/03/26 04:04:11;;;;;;;5.17;1.10;;;8.20;99.90;;;;;;4938487;29;20171;-80
2023/03/26 04:06:37;;;;;;;4.13;1.03;;;8.30;99.90;;;;;;4934797;29;20958;-80
2023/03/26 04:09:03;;;;;;;5.10;0.80;;;8.30;99.90;;;;;;4938789;29;20515;-81
2023/03/26 04:11:28;;;;;;;4.73;0.80;;;8.30;99.90;;;;;;4937645;29;20512;-80
2023/03/26 04:13:54;;;;;;;6.67;0.97;;;8.20;99.90;;;;;;4937030;29;20212;-81
2023/03/26 04:16:19;;;;;;;11.57;1.07;;;8.30;99.90;;;;;;4938510;29;20219;-80
2023/03/26 04:18:45;;;;;;;10.90;1.50;;;8.40;99.90;;;;;;4938508;29;20177;-82
2023/03/26 04:21:11;;;;;;;8.77;0.60;;;8.40;99.90;;;;;;4937137;29;20179;-81
2023/03/26 04:23:38;;;;;;;4.30;0.53;;;8.30;99.90;;;;;;4937869;29;20793;-80
2023/03/26 04:26:09;;;;;;;6.23;1.20;;;8.40;99.90;;;;;;4937060;29;20185;-81
2023/03/26 04:28:53;;;;;;;7.60;1.70;;;8.40;99.90;;;;;;4921551;29;20576;-80
2023/03/26 04:31:22;;;;;;;7.33;0.80;;;8.20;92.80;;;;;;4952731;29;20466;-81
2023/03/26 04:33:53;;;;;;;8.20;1.60;;;7.90;99.90;;;;;;4936819;29;20483;-80
2023/03/26 04:36:25;;;;;;;5.23;0.77;;;7.90;99.90;;;;;;4936042;29;20476;-81
2023/03/26 04:38:52;;;;;;;10.03;1.10;;;7.90;99.90;;;;;;4936106;29;20597;-82
2023/03/26 04:41:19;;;;;;;8.23;1.40;;;7.90;99.90;;;;;;4937287;29;20939;-81
2023/03/26 04:43:49;;;;;;;7.10;1.23;;;7.80;99.90;;;;;;4936659;29;20537;-81
2023/03/26 04:46:20;;;;;;;5.33;0.50;;;7.80;99.90;;;;;;4937772;29;20419;-79
2023/03/26 04:48:47;;;;;;;3.37;0.70;;;7.80;99.90;;;;;;4938039;29;20423;-80
2023/03/26 04:51:20;;;;;;;3.93;1.10;;;7.70;60.90;;;;;;4937844;29;20421;-79
2023/03/26 04:53:57;;;;;;;6.97;1.57;;;7.70;56.30;;;;;;4937464;29;20479;-79
2023/03/26 04:56:48;;;;;;;7.03;1.10;;;7.60;29.80;;;;;;4937988;29;20411;-81
2023/03/26 04:59:19;;;;;;;6.80;1.70;;;7.40;16.80;;;;;;4936688;29;20481;-79
2023/03/26 05:01:44;;;;;;;7.00;1.40;;;7.40;2.30;;;;;;4937744;29;20454;-80
2023/03/26 05:04:12;;;;;;;11.80;1.50;;;7.30;17.50;;;;;;4936473;29;20923;-79
2023/03/26 05:06:38;;;;;;;3.90;0.63;;;7.40;16.40;;;;;;4935190;29;20210;-80
2023/03/26 05:09:05;;;;;;;5.97;1.17;;;7.40;3.20;;;;;;5012840;23;20622;-81
2023/03/26 05:11:31;;;;;;;4.40;1.07;;;7.40;1.00;;;;;;4995526;28;20423;-79
2023/03/26 05:13:59;;;;;;;8.47;0.90;;;7.40;7.40;;;;;;5010309;28;20475;-81
2023/03/26 05:16:25;;;;;;;4.83;0.70;;;7.40;4.30;;;;;;5009656;28;20176;-79
2023/03/26 05:18:51;;;;;;;6.97;0.73;;;7.40;1.00;;;;;;4995302;28;20425;-80
2023/03/26 05:21:16;;;;;;;7.33;0.83;;;7.30;7.30;;;;;;4990652;28;20567;-79
2023/03/26 05:23:42;;;;;;;9.00;1.00;;;7.40;20.40;;;;;;4987794;28;20630;-79
2023/03/26 05:26:11;;;;;;;4.83;0.83;;;7.40;10.10;;;;;;4995110;28;20181;-79
2023/03/26 05:28:36;;;;;;;4.50;1.20;;;7.50;10.40;;;;;;4995179;28;20661;-79
2023/03/26 05:31:02;;;;;;;3.40;0.47;;;7.50;10.20;;;;;;4995328;28;20520;-80
2023/03/26 05:33:28;;;;;;;3.93;0.60;;;7.40;22.80;;;;;;5010277;28;20224;-79
2023/03/26 05:36:00;;;;;;;7.90;1.30;;;7.40;37.60;;;;;;4995233;28;20198;-79
2023/03/26 05:38:27;;;;;;;3.80;0.50;;;7.40;36.30;;;;;;4994705;28;20827;-79
2023/03/26 05:41:00;;;;;;;3.80;0.80;;;7.40;37.00;;;;;;4995007;28;20479;-77
2023/03/26 05:43:27;;;;;;;3.40;0.87;;;7.40;49.80;;;;;;4995141;28;20413;-79
2023/03/26 05:45:53;;;;;;;5.10;1.43;;;7.50;46.70;;;;;;4995129;28;20415;-79
2023/03/26 05:48:19;;;;;;;8.57;0.83;;;7.40;28.30;;;;;;4993653;28;21122;-79
2023/03/26 05:50:52;;;;;;;4.40;0.40;;;7.40;47.90;;;;;;4994956;28;20191;-79
2023/03/26 05:53:19;;;;;;;2.33;0.67;;;7.40;47.60;;;;;;4993116;28;20471;-79
2023/03/26 05:55:49;;;;;;;3.23;0.30;;;7.50;54.60;;;;;;4994871;28;20428;-79
2023/03/26 05:58:15;;;;;;;2.30;0.50;;;7.50;33.60;;;;;;4994752;28;20404;-79
2023/03/26 06:00:47;;;;;;;4.40;1.30;;;7.50;33.30;;;;;;4993519;28;20771;-80
2023/03/26 06:03:15;;;;;;;2.20;0.37;;;7.50;28.90;;;;;;4994703;28;20795;-79
2023/03/26 06:05:41;;;;;;;9.03;0.70;;;7.60;20.10;;;;;;4994648;28;20421;-79
2023/03/26 06:08:07;;;;;;;4.13;0.63;;;7.70;22.20;;;;;;4992754;28;20557;-79
2023/03/26 06:10:32;;;;;;;0.70;0.30;;;7.60;15.70;;;;;;4993341;28;20517;-79
2023/03/26 06:12:58;;;;;;;1.17;0.60;;;7.60;28.10;;;;;;4994435;28;20209;-79
2023/03/26 06:15:23;;;;;;;3.87;0.57;;;7.70;23.20;;;;;;4992897;28;20273;-79
2023/03/26 06:17:49;;;;;;;4.63;0.50;;;7.70;20.40;;;;;;4993230;28;20536;-79
2023/03/26 06:20:15;;;;;;;3.90;0.40;;;7.80;23.50;;;;;;4994365;28;20188;-79
2023/03/26 06:22:40;;;;;;;3.70;0.70;;;7.80;1.00;;;;;;4994030;28;20619;-79
2023/03/26 06:25:07;;;;;;;6.20;0.50;;;7.70;1.00;;;;;;4992565;28;20476;-79
2023/03/26 06:27:32;;;;;;;4.73;0.43;;;7.70;1.90;;;;;;4992839;28;20182;-79
2023/03/26 06:29:58;;;;;;;1.73;0.30;;;7.70;1.00;;;;;;4992786;28;20426;-79
2023/03/26 06:32:23;;;;;;;3.25;0.80;;;7.80;1.00;;;;;;4992640;28;20788;-79
2023/03/26 06:34:49;;;;;;;4.30;0.70;;;7.80;1.00;;;;;;4992118;28;20186;-79
2023/03/26 06:37:15;;;;;;;2.20;0.50;;;7.90;1.00;;;;;;4992251;28;20190;-79
2023/03/26 06:39:41;;;;;;;8.47;0.70;;;8.00;1.00;;;;;;4992671;28;20179;-81
2023/03/26 06:42:06;;;;;;;4.73;0.83;;;8.10;1.00;;;;;;4992606;28;20774;-79
2023/03/26 06:44:32;;;;;;;4.33;0.53;;;8.20;1.00;;;;;;4992608;28;20547;-79
2023/03/26 06:46:57;;;;;;;2.80;0.63;;;8.30;1.00;;;;;;4992688;28;20185;-79
2023/03/26 06:49:23;;;;;;;8.23;0.60;;;8.50;1.00;;;;;;4993957;28;20226;-79
2023/03/26 06:51:48;;;;;;;3.60;0.90;;;8.50;1.00;;;;;;4993506;28;20172;-80
2023/03/26 06:54:14;;;;;;;9.87;1.70;;;8.40;1.00;;;;;;4993629;28;20222;-80
2023/03/26 06:56:39;;;;;;;4.70;0.50;;;8.70;1.00;;;;;;4992621;28;20259;-80
2023/03/26 06:59:05;;;;;;;4.50;0.80;;;8.70;1.00;;;;;;4993752;28;20199;-79
2023/03/26 07:01:30;;;;;;;9.87;1.27;;;8.80;1.00;;;;;;5008662;28;20178;-80
2023/03/26 07:03:57;;;;;;;5.53;1.70;;;8.70;1.00;;;;;;4992154;28;20175;-79
2023/03/26 07:06:22;;;;;;;9.70;2.50;;;8.70;1.00;;;;;;4993310;28;20176;-79
2023/03/26 07:08:48;;;;;;;5.90;1.20;;;8.50;99.90;;;;;;4993202;28;20537;-79
2023/03/26 07:11:15;;;;;;;4.37;0.77;;;8.50;99.90;;;;;;4993343;28;20621;-79
2023/03/26 07:13:41;;;;;;;12.67;1.03;;;8.60;99.90;;;;;;4993456;28;20211;-79
2023/03/26 07:16:07;;;;;;;7.00;0.57;;;8.70;99.90;;;;;;4993467;28;20420;-79
2023/03/26 07:18:32;;;;;;;6.70;0.80;;;8.70;99.90;;;;;;4993460;28;20171;-80
2023/03/26 07:20:58;;;;;;;2.93;0.57;;;8.70;99.90;;;;;;4993452;28;20175;-80
2023/03/26 07:23:31;;;;;;;9.37;0.90;;;8.80;99.90;;;;;;4991861;28;20231;-79
2023/03/26 07:25:59;;;;;;;3.93;0.40;;;8.90;1.00;;;;;;4993427;28;20422;-79
2023/03/26 07:28:33;;;;;;;4.90;0.73;;;8.80;35.40;;;;;;4996095;28;20432;-79
2023/03/26 07:31:18;;;;;;;4.57;1.17;;;8.80;1.00;;;;;;4996242;28;20448;-80
2023/03/26 07:34:10;;;;;;;8.50;0.50;;;8.50;1.00;;;;;;4996128;28;20535;-79
2023/03/26 07:36:56;;;;;;;4.10;0.50;;;8.50;1.00;;;;;;4995846;28;20833;-79
2023/03/26 07:39:43;;;;;;;11.73;1.50;;;8.60;1.00;;;;;;4997294;28;20432;-79
2023/03/26 07:42:36;;;;;;;8.43;1.10;;;8.80;99.90;;;;;;4997187;28;20933;-80
2023/03/26 07:45:18;;;;;;;4.30;0.40;;;9.10;1.00;;;;;;4996047;28;20424;-79
2023/03/26 07:47:45;;;;;;;2.43;0.53;;;9.30;1.00;;;;;;4997247;28;20418;-80
2023/03/26 07:50:17;;;;;;;3.63;0.80;;;9.50;36.60;;;;;;4997347;28;20856;-81
2023/03/26 07:52:45;;;;;;;12.03;0.83;;;9.40;99.90;;;;;;4996673;28;20899;-80
2023/03/26 07:55:15;;;;;;;7.07;1.13;;;9.20;1.00;;;;;;4996974;28;20518;-79
2023/03/26 07:58:18;;;;;;;6.23;0.73;;;9.20;1.00;;;;;;4995785;28;20594;-79
2023/03/26 08:00:54;;;;;;;6.93;0.83;;;9.10;1.00;;;;;;4997010;28;20426;-79
2023/03/26 08:03:30;;;;;;;3.00;0.40;;;8.90;1.00;;;;;;4996877;28;20565;-79
2023/03/26 08:06:19;;;;;;;7.73;0.90;;;8.90;1.00;;;;;;4995615;28;20435;-79
2023/03/26 08:09:03;;;;;;;5.73;0.57;;;9.00;1.00;;;;;;4995479;28;20490;-79
2023/03/26 08:11:36;;;;;;;4.57;0.67;;;8.80;99.90;;;;;;4995219;28;20569;-79
2023/03/26 08:14:25;;;;;;;4.60;1.00;;;8.80;99.90;;;;;;4994156;28;20477;-79
2023/03/26 08:17:43;;;;;;;9.43;0.83;;;9.00;99.90;;;;;;5009925;28;20422;-79
2023/03/26 08:20:25;;;;;;;5.70;0.87;;;9.00;99.90;;;;;;4977598;28;20474;-79
2023/03/26 08:22:58;;;;;;;7.60;0.83;;;9.10;99.90;;;;;;4993567;28;20507;-80
2023/03/26 08:25:33;;;;;;;4.43;0.97;;;9.40;99.90;;;;;;4994095;28;20412;-79
2023/03/26 08:28:16;;;;;;;5.17;1.07;;;9.70;99.90;;;;;;4995173;28;20419;-79
2023/03/26 08:30:43;;;;;;;4.93;0.80;;;9.60;99.90;;;;;;4995378;28;20818;-78
2023/03/26 08:33:20;;;;;;;5.20;1.10;;;9.80;99.90;;;;;;4994974;28;20548;-77
2023/03/26 08:35:46;;;;;;;2.37;1.00;;;9.90;99.90;;;;;;5010264;28;20976;-78
2023/03/26 08:38:17;;;;;;;10.27;1.67;;;10.00;99.90;;;;;;4994421;28;20408;-77
2023/03/26 08:40:58;;;;;;;7.30;0.80;;;10.10;99.90;;;;;;4993593;28;20486;-78
2023/03/26 08:43:26;;;;;;;8.73;1.10;;;10.40;99.90;;;;;;4993805;28;20421;-78
2023/03/26 08:46:12;;;;;;;2.40;0.70;;;10.70;99.90;;;;;;4995178;28;20426;-78
2023/03/26 08:49:12;;;;;;;7.60;1.50;;;10.80;99.90;;;;;;4995039;28;20477;-78
2023/03/26 08:51:59;;;;;;;10.07;1.40;;;10.80;99.90;;;;;;4993313;28;20994;-77
2023/03/26 08:54:38;;;;;;;7.73;1.33;;;11.00;99.90;;;;;;4993557;28;20480;-79
2023/03/26 08:57:34;;;;;;;6.20;1.13;;;11.20;99.90;;;;;;4993665;28;20423;-80
2023/03/26 09:00:31;;;;;;;9.40;1.07;;;11.70;99.90;;;;;;4993525;28;20825;-80
2023/03/26 09:03:29;;;;;;;10.17;1.03;;;12.00;99.90;;;;;;4994610;28;20462;-80
2023/03/26 09:06:09;;;;;;;8.50;1.57;;;12.70;99.90;;;;;;4992954;28;20788;-78
2023/03/26 09:09:03;;;;;;;5.97;0.80;;;13.70;99.90;;;;;;4960352;28;1004498;-78
2023/03/26 09:11:52;;;;;;;5.73;1.07;;;14.60;96.40;;;;;;4995720;28;20178;-78
2023/03/26 09:14:17;;;;;;;7.10;0.97;;;15.40;61.00;;;;;;4995511;28;20478;-78
2023/03/26 09:17:09;;;;;;;4.80;0.63;;;15.70;48.60;;;;;;4995626;28;20478;-78
2023/03/26 09:19:46;;;;;;;3.80;0.53;;;16.00;38.90;;;;;;4995562;28;20506;-79
2023/03/26 09:22:46;;;;;;;8.23;1.13;;;16.10;34.10;;;;;;4995174;28;20759;-79
2023/03/26 09:25:23;;;;;;;5.33;0.97;;;17.20;45.00;;;;;;4995388;28;20748;-79
2023/03/26 09:28:33;;;;;;;7.40;1.20;;;18.10;40.40;;;;;;4995588;28;20421;-79
2023/03/26 09:31:19;;;;;;;7.60;1.23;;;18.40;36.70;;;;;;4983510;28;20430;-79
2023/03/26 09:34:04;;;;;;;5.83;1.27;;;18.10;25.90;;;;;;4994059;28;20469;-79
2023/03/26 09:36:52;;;;;;;4.33;1.20;;;18.00;22.20;;;;;;4994254;28;20920;-79
2023/03/26 09:39:37;;;;;;;6.17;1.10;;;18.50;25.60;;;;;;4993734;28;20481;-78
2023/03/26 09:42:10;;;;;;;8.37;1.60;;;18.90;26.00;;;;;;4993968;28;20449;-79
2023/03/26 09:45:12;;;;;;;7.80;0.90;;;18.70;21.90;;;;;;4995080;28;20814;-79
2023/03/26 09:48:04;;;;;;;5.33;0.90;;;17.60;10.90;;;;;;4995010;28;20399;-79
2023/03/26 09:50:49;;;;;;;5.73;1.57;;;17.10;6.80;;;;;;4994323;28;20433;-79
2023/03/26 09:53:39;;;;;;;7.30;1.40;;;16.70;3.80;;;;;;4994920;28;20478;-78
2023/03/26 09:56:37;;;;;;;5.90;1.00;;;16.60;4.70;;;;;;4994886;28;20403;-78
2023/03/26 09:59:24;;;;;;;9.20;1.60;;;16.90;7.80;;;;;;4994851;28;20484;-79
2023/03/26 10:02:03;;;;;;;11.50;1.13;;;16.60;3.50;;;;;;5010058;28;20429;-78
2023/03/26 10:04:50;;;;;;;6.83;1.23;;;16.30;1.00;;;;;;5009856;28;20420;-78
2023/03/26 10:07:43;;;;;;;6.57;0.60;;;15.90;1.00;;;;;;4994232;28;20453;-79
2023/03/26 10:10:30;;;;;;;10.70;0.90;;;15.60;1.00;;;;;;4994467;28;20429;-78
2023/03/26 10:13:20;;;;;;;5.13;0.77;;;14.70;1.00;;;;;;4994508;28;20466;-78
2023/03/26 10:16:14;;;;;;;5.23;1.00;;;14.00;1.00;;;;;;5009737;28;20443;-80
2023/03/26 10:19:19;;;;;;;6.83;1.90;;;13.90;1.00;;;;;;4994538;28;20424;-79
2023/03/26 10:22:21;;;;;;;6.70;1.17;;;13.70;1.00;;;;;;4994140;28;20771;-78
2023/03/26 10:25:19;;;;;;;5.90;0.73;;;14.60;1.00;;;;;;5009481;28;20418;-78
2023/03/26 10:28:06;;;;;;;8.10;1.67;;;16.20;5.10;;;;;;4994443;28;20760;-79
2023/03/26 10:30:45;;;;;;;6.80;1.87;;;17.50;8.80;;;;;;5009375;28;20431;-79
2023/03/26 10:33:32;;;;;;;6.67;1.13;;;19.00;18.30;;;;;;5009527;28;20596;-79
2023/03/26 10:36:01;;;;;;;5.03;0.70;;;19.50;16.00;;;;;;4993669;28;20422;-79
2023/03/26 10:38:35;;;;;;;7.73;2.30;;;20.30;19.80;;;;;;5009236;28;20419;-79
2023/03/26 10:41:25;;;;;;;5.20;1.00;;;20.60;18.40;;;;;;5009257;28;20454;-80
2023/03/26 10:44:32;;;;;;;3.60;0.67;;;20.30;12.70;;;;;;5009222;28;20524;-79
2023/03/26 10:47:31;;;;;;;5.20;0.97;;;19.60;6.30;;;;;;5009190;28;20425;-79
2023/03/26 10:50:33;;;;;;;11.30;1.50;;;19.60;5.60;;;;;;4993926;28;20413;-79
2023/03/26 10:53:17;;;;;;;4.77;1.50;;;19.70;5.50;;;;;;4993815;28;20933;-79
2023/03/26 10:55:53;;;;;;;5.30;1.40;;;19.20;1.00;;;;;;4993892;28;20421;-79
2023/03/26 10:58:31;;;;;;;4.83;1.13;;;18.80;5.90;;;;;;4993883;28;20946;-78
2023/03/26 11:01:11;;;;;;;7.43;0.80;;;18.40;1.00;;;;;;4993494;28;20427;-78
2023/03/26 11:03:45;;;;;;;5.00;1.13;;;18.00;1.00;;;;;;5008672;28;20427;-79
2023/03/26 11:06:26;;;;;;;5.07;1.30;;;18.20;1.00;;;;;;5008491;28;20830;-79
2023/03/26 11:09:11;;;;;;;5.13;1.30;;;18.60;1.00;;;;;;4993562;28;20503;-79
2023/03/26 11:11:54;;;;;;;6.93;1.27;;;18.70;3.60;;;;;;4993623;28;20421;-79
2023/03/26 11:14:46;;;;;;;5.03;0.60;;;19.30;1.00;;;;;;4993525;28;20898;-79
2023/03/26 11:17:33;;;;;;;8.90;1.57;;;19.80;2.10;;;;;;4993849;28;20419;-79
2023/03/26 11:20:21;;;;;;;4.77;1.43;;;21.10;10.20;;;;;;4993634;28;20422;-80
2023/03/26 11:23:14;;;;;;;4.23;1.00;;;22.00;15.10;;;;;;4993260;28;20399;-80
2023/03/26 11:26:15;;;;;;;6.50;1.07;;;22.80;27.90;;;;;;4993622;28;20919;-79
2023/03/26 11:29:01;;;;;;;6.70;1.10;;;23.10;19.20;;;;;;4993540;28;20414;-79
2023/03/26 11:31:55;;;;;;;4.40;1.23;;;23.90;24.60;;;;;;4993477;28;20496;-80
2023/03/26 11:34:29;;;;;;;5.97;0.93;;;24.50;27.20;;;;;;4991052;28;20963;-80
2023/03/26 11:36:57;;;;;;;5.53;1.40;;;24.80;27.60;;;;;;4992922;28;20434;-80
2023/03/26 11:39:28;;;;;;;11.47;2.03;;;24.40;22.60;;;;;;4993465;28;20494;-80
2023/03/26 11:42:05;;;;;;;5.77;1.10;;;24.20;20.00;;;;;;4993519;28;20410;-80
2023/03/26 11:44:38;;;;;;;4.80;0.77;;;24.80;23.80;;;;;;4993585;28;20882;-80
2023/03/26 11:47:09;;;;;;;4.53;1.37;;;25.00;24.50;;;;;;4993315;28;20415;-80
2023/03/26 11:49:35;;;;;;;5.97;1.03;;;25.30;25.20;;;;;;4993471;28;20422;-80
2023/03/26 11:52:02;;;;;;;5.83;1.57;;;25.00;21.50;;;;;;5008046;28;20438;-80
2023/03/26 11:54:28;;;;;;;5.53;1.00;;;24.40;15.90;;;;;;4993308;28;20474;-80
2023/03/26 11:56:57;;;;;;;4.33;1.30;;;24.30;15.30;;;;;;4993266;28;20426;-80
2023/03/26 11:59:29;;;;;;;6.97;1.17;;;25.00;19.40;;;;;;4993304;28;20199;-80
2023/03/26 12:01:56;;;;;;;7.13;1.67;;;24.90;18.60;;;;;;4993229;28;20414;-80
2023/03/26 12:04:32;;;;;;;5.87;0.97;;;25.20;19.60;;;;;;5008282;28;20418;-80
2023/03/26 12:07:13;;;;;;;7.40;1.33;;;25.20;19.00;;;;;;4992755;28;20406;-80
2023/03/26 12:09:52;;;;;;;4.30;0.80;;;25.20;17.10;;;;;;4992962;28;20552;-80
2023/03/26 12:12:25;;;;;;;4.80;1.03;;;25.50;19.20;;;;;;4993005;28;20454;-80
2023/03/26 12:14:51;;;;;;;5.00;0.93;;;25.30;17.10;;;;;;5011314;28;20480;-80
2023/03/26 12:17:34;;;;;;;8.73;1.50;;;25.30;16.50;;;;;;5011819;28;20513;-80
2023/03/26 12:20:01;;;;;;;4.30;1.23;;;25.70;17.80;;;;;;5011916;28;20175;-80
2023/03/26 12:22:32;;;;;;;7.70;1.07;;;25.70;16.80;;;;;;4996239;28;20462;-80
2023/03/26 12:25:16;;;;;;;5.60;0.67;;;25.10;12.10;;;;;;4996563;28;20413;-80
2023/03/26 12:27:46;;;;;;;8.20;1.30;;;25.20;12.20;;;;;;4996541;28;20442;-80
2023/03/26 12:30:22;;;;;;;8.17;1.27;;;25.30;11.90;;;;;;4996596;28;20419;-80
2023/03/26 12:32:49;;;;;;;4.57;1.10;;;25.10;10.10;;;;;;4996491;28;20450;-80
2023/03/26 12:35:19;;;;;;;6.00;0.73;;;25.30;11.40;;;;;;4996329;28;20825;-80
2023/03/26 12:37:46;;;;;;;9.67;1.57;;;25.50;11.70;;;;;;4996326;28;20415;-80
2023/03/26 12:40:34;;;;;;;4.17;1.00;;;25.80;13.20;;;;;;4996267;28;20426;-80
2023/03/26 12:43:03;;;;;;;6.00;1.40;;;25.60;11.20;;;;;;4996356;28;20419;-80
2023/03/26 12:45:39;;;;;;;5.90;1.17;;;25.30;8.50;;;;;;4996215;28;20859;-80
2023/03/26 12:48:06;;;;;;;4.87;1.63;;;25.00;5.50;;;;;;4996196;28;20485;-80
2023/03/26 12:51:03;;;;;;;7.60;1.57;;;24.70;3.00;;;;;;4995915;28;20422;-80
2023/03/26 12:53:48;;;;;;;8.00;1.07;;;24.90;3.90;;;;;;4996054;28;20513;-80
2023/03/26 12:56:40;;;;;;;8.03;2.20;;;24.90;3.60;;;;;;4996080;28;20422;-80
2023/03/26 12:59:20;;;;;;;6.63;0.90;;;25.10;4.80;;;;;;4996088;28;20767;-80
2023/03/26 13:01:58;;;;;;;5.53;1.50;;;25.20;3.60;;;;;;4995898;28;20464;-80
2023/03/26 13:04:36;;;;;;;4.40;1.03;;;25.00;1.30;;;;;;4995856;28;20410;-80
2023/03/26 13:07:26;;;;;;;4.87;1.10;;;24.80;1.00;;;;;;4995457;28;20418;-80
2023/03/26 13:10:00;;;;;;;7.80;1.03;;;24.50;1.00;;;;;;4995869;28;20841;-80
2023/03/26 13:12:39;;;;;;;5.63;1.43;;;24.70;1.00;;;;;;4995781;28;20800;-80
2023/03/26 13:15:18;;;;;;;3.53;0.93;;;24.90;1.00;;;;;;4995796;28;20803;-80
2023/03/26 13:18:06;;;;;;;8.77;1.00;;;24.80;1.00;;;;;;5010785;28;20410;-80
2023/03/26 13:21:02;;;;;;;5.37;0.80;;;24.90;1.00;;;;;;4995285;28;20426;-80
2023/03/26 13:23:50;;;;;;;6.60;1.13;;;24.60;1.00;;;;;;5010687;28;20793;-80
2023/03/26 13:26:33;;;;;;;6.03;1.37;;;24.00;1.00;;;;;;4994544;28;20451;-80
2023/03/26 13:29:16;;;;;;;3.30;0.90;;;23.80;1.00;;;;;;4995424;28;20415;-80
2023/03/26 13:31:58;;;;;;;3.23;1.47;;;23.40;1.00;;;;;;4995404;28;20423;-80
2023/03/26 13:34:41;;;;;;;6.13;1.10;;;22.50;1.00;;;;;;4995242;28;20477;-80